Time;durP1;ratioP1;P1;durP2;ratioP2;P2;SDS_P1;SDS_P2;PMS_P1;PMS_P2;Temp;Humidity;BMP_temperature;BMP_pressure;BME280_temperature;BME280_humidity;BME280_pressure;Samples;Min_cycle;Max_cycle;Signal;HPM_P1;HPM_P2
2023/03/29 00:00:00;;;;;;;;;;;;;;;3.89;46.86;93057.44;4977254;28;19960;-78
2023/03/29 00:10:13;;;;;;;;;;;;;;;3.81;47.91;93078.53;4957113;28;19925;-78
2023/03/29 00:12:39;;;;;;;;;;;;;;;3.78;49.24;93076.38;4964537;28;19926;-78
2023/03/29 00:15:06;;;;;;;;;;;;;;;3.74;48.80;93075.28;4972687;28;20402;-78
2023/03/29 00:17:31;;;;;;;;;;;;;;;3.72;48.74;93074.72;4967390;28;19917;-78
2023/03/29 00:19:57;;;;;;;;;;;;;;;3.71;48.19;93071.31;4954805;29;19914;-78
2023/03/29 00:22:22;;;;;;;;;;;;;;;3.74;48.25;93075.28;4967624;28;19925;-78
2023/03/29 00:24:50;;;;;;;;;;;;;;;3.79;48.18;93070.19;4974552;28;19921;-78
2023/03/29 00:27:16;;;;;;;;;;;;;;;3.80;48.14;93078.75;4974492;28;20296;-78
2023/03/29 00:29:42;;;;;;;;;;;;;;;3.84;48.58;93075.47;4974127;28;19921;-78
2023/03/29 00:32:07;;;;;;;;;;;;;;;3.87;48.38;93079.41;4988711;28;20414;-78
2023/03/29 00:34:34;;;;;;;;;;;;;;;3.88;48.28;93074.00;4972809;28;19929;-78
2023/03/29 00:37:00;;;;;;;;;;;;;;;3.91;47.91;93070.16;4974319;28;20335;-78
2023/03/29 00:39:26;;;;;;;;;;;;;;;3.93;48.09;93070.72;4989320;28;20000;-78
2023/03/29 00:41:54;;;;;;;;;;;;;;;4.00;48.77;93062.81;4974609;28;19914;-78
2023/03/29 00:44:38;;;;;;;;;;;;;;;4.01;48.42;93066.97;4989207;28;19924;-78
2023/03/29 00:47:03;;;;;;;;;;;;;;;4.03;48.45;93064.94;4973698;28;19914;-78
2023/03/29 00:49:29;;;;;;;;;;;;;;;4.05;48.79;93055.13;4973523;28;20123;-78
2023/03/29 00:51:54;;;;;;;;;;;;;;;4.08;47.66;93059.84;4989597;28;19918;-78
2023/03/29 00:54:20;;;;;;;;;;;;;;;4.10;47.74;93050.06;4973412;28;19928;-78
2023/03/29 00:56:48;;;;;;;;;;;;;;;4.11;47.55;93044.63;4973342;28;19921;-78
2023/03/29 00:59:18;;;;;;;;;;;;;;;4.09;47.72;93040.69;4973557;28;19914;-78
2023/03/29 01:01:47;;;;;;;;;;;;;;;4.09;47.83;93030.31;4972872;28;19925;-78
2023/03/29 01:04:17;;;;;;;;;;;;;;;4.07;47.76;93027.97;4989577;28;19953;-78
2023/03/29 01:06:51;;;;;;;;;;;;;;;4.04;47.61;93038.81;4973338;28;20038;-78
2023/03/29 01:09:18;;;;;;;;;;;;;;;4.02;47.19;93035.66;4964519;28;19946;-79
2023/03/29 01:11:50;;;;;;;;;;;;;;;4.00;48.11;93032.50;4972559;28;19925;-78
2023/03/29 01:14:22;;;;;;;;;;;;;;;3.96;49.16;93028.78;4956326;28;19914;-78
2023/03/29 01:16:47;;;;;;;;;;;;;;;3.91;49.71;93021.72;4972974;28;19945;-78
2023/03/29 01:19:17;;;;;;;;;;;;;;;3.88;49.07;93016.25;4969251;28;19918;-78
2023/03/29 01:21:56;;;;;;;;;;;;;;;3.83;48.47;93001.38;4969501;28;19914;-78
2023/03/29 01:24:32;;;;;;;;;;;;;;;3.80;48.87;93007.00;4969769;28;19997;-78
2023/03/29 01:27:01;;;;;;;;;;;;;;;3.78;48.97;93003.09;4954629;29;19954;-78
2023/03/29 01:29:31;;;;;;;;;;;;;;;3.75;49.64;93009.53;4953553;28;20320;-78
2023/03/29 01:32:00;;;;;;;;;;;;;;;3.73;50.18;93020.09;4960900;28;19922;-78
2023/03/29 01:35:09;;;;;;;;;;;;;;;3.68;49.60;93024.41;4975455;28;20233;-78
2023/03/29 01:37:55;;;;;;;;;;;;;;;3.63;49.31;93022.50;4974768;28;19921;-78
2023/03/29 01:40:22;;;;;;;;;;;;;;;3.60;49.13;93035.13;4958616;28;19969;-78
2023/03/29 01:42:53;;;;;;;;;;;;;;;3.61;48.12;93039.28;4968447;28;19943;-78
2023/03/29 01:45:18;;;;;;;;;;;;;;;3.61;47.02;93036.72;4976793;28;20022;-79
2023/03/29 01:47:58;;;;;;;;;;;;;;;3.61;46.08;93052.25;4976150;28;19938;-78
2023/03/29 01:50:35;;;;;;;;;;;;;;;3.58;46.22;93034.56;4976668;28;19945;-78
2023/03/29 01:53:16;;;;;;;;;;;;;;;3.57;46.02;93009.69;4976263;28;19921;-78
2023/03/29 01:55:45;;;;;;;;;;;;;;;3.54;45.96;93008.34;4956809;29;19968;-78
2023/03/29 01:58:12;;;;;;;;;;;;;;;3.55;45.29;93017.69;4957805;28;20447;-78
2023/03/29 02:00:40;;;;;;;;;;;;;;;3.57;45.41;93027.81;4973013;28;20365;-78
2023/03/29 02:03:07;;;;;;;;;;;;;;;3.58;45.08;93026.78;4955969;28;19969;-79
2023/03/29 02:05:33;;;;;;;;;;;;;;;3.59;45.54;93023.19;4975939;28;19953;-77
2023/03/29 02:08:00;;;;;;;;;;;;;;;3.57;46.01;93022.66;4976151;28;19938;-78
2023/03/29 02:10:26;;;;;;;;;;;;;;;3.55;45.96;93020.28;4974880;28;19972;-78
2023/03/29 02:12:52;;;;;;;;;;;;;;;3.53;45.61;93025.69;4975329;28;19914;-78
2023/03/29 02:15:18;;;;;;;;;;;;;;;3.54;46.21;93027.25;4976430;28;19964;-78
2023/03/29 02:17:45;;;;;;;;;;;;;;;3.53;46.60;93032.66;4975654;28;19921;-78
2023/03/29 02:20:17;;;;;;;;;;;;;;;3.50;46.46;93030.53;4975622;28;19914;-78
2023/03/29 02:23:03;;;;;;;;;;;;;;;3.49;46.28;93022.00;4975271;28;20347;-78
2023/03/29 02:25:29;;;;;;;;;;;;;;;3.46;46.88;93008.72;4955652;29;19968;-78
2023/03/29 02:27:55;;;;;;;;;;;;;;;3.44;46.92;92998.56;4972332;28;20407;-78
2023/03/29 02:30:22;;;;;;;;;;;;;;;3.45;45.97;92991.63;4956273;29;19927;-78
2023/03/29 02:32:56;;;;;;;;;;;;;;;3.48;45.70;92983.38;4956422;29;19921;-78
2023/03/29 02:35:44;;;;;;;;;;;;;;;3.47;46.24;92987.78;4974152;28;19918;-78
2023/03/29 02:38:11;;;;;;;;;;;;;;;3.48;47.81;92988.56;4975406;28;19962;-78
2023/03/29 02:40:38;;;;;;;;;;;;;;;3.50;48.53;92987.31;4974528;28;20019;-78
2023/03/29 02:43:05;;;;;;;;;;;;;;;3.51;48.89;92982.91;4973830;28;20340;-78
2023/03/29 02:45:31;;;;;;;;;;;;;;;3.52;48.32;92974.94;4974017;28;19918;-78
2023/03/29 02:48:00;;;;;;;;;;;;;;;3.57;48.19;92978.63;4975098;28;19922;-78
2023/03/29 02:50:28;;;;;;;;;;;;;;;3.60;48.94;92972.97;4975056;28;19925;-78
2023/03/29 02:52:58;;;;;;;;;;;;;;;3.60;49.92;92983.34;4974812;28;19914;-78
2023/03/29 02:55:24;;;;;;;;;;;;;;;3.62;50.27;92981.31;4974092;28;19914;-78
2023/03/29 02:57:50;;;;;;;;;;;;;;;3.62;52.02;92981.31;4974175;28;19914;-79
2023/03/29 03:00:17;;;;;;;;;;;;;;;3.63;51.32;92980.31;4969742;28;19973;-78
2023/03/29 03:02:43;;;;;;;;;;;;;;;3.65;51.76;92983.44;4955238;28;19917;-78
2023/03/29 03:05:09;;;;;;;;;;;;;;;3.66;51.11;92979.84;4983495;28;19925;-78
2023/03/29 03:07:35;;;;;;;;;;;;;;;3.69;51.84;92980.16;4976922;28;19964;-78
2023/03/29 03:10:00;;;;;;;;;;;;;;;3.71;51.87;92979.91;4974768;28;19926;-78
2023/03/29 03:12:26;;;;;;;;;;;;;;;3.73;51.43;92975.28;4975130;28;20013;-78
2023/03/29 03:14:51;;;;;;;;;;;;;;;3.73;51.32;92972.72;4974390;28;20100;-78
2023/03/29 03:17:17;;;;;;;;;;;;;;;3.72;51.37;92963.38;4974788;28;20005;-78
2023/03/29 03:19:45;;;;;;;;;;;;;;;3.73;47.93;92960.53;4974431;28;19914;-78
2023/03/29 03:22:11;;;;;;;;;;;;;;;3.87;47.24;92960.25;4974461;28;19940;-79
2023/03/29 03:24:37;;;;;;;;;;;;;;;3.88;47.57;92977.38;4974618;28;19925;-78
2023/03/29 03:27:03;;;;;;;;;;;;;;;3.83;48.52;92974.69;4974152;28;19918;-78
2023/03/29 03:29:29;;;;;;;;;;;;;;;3.74;49.53;92980.25;4974159;28;20024;-78
2023/03/29 03:31:57;;;;;;;;;;;;;;;3.65;48.96;92971.28;4974531;28;19922;-77
2023/03/29 03:34:41;;;;;;;;;;;;;;;3.59;49.43;92976.59;4978232;28;19924;-79
2023/03/29 03:37:06;;;;;;;;;;;;;;;3.51;49.94;92972.56;4972184;28;19922;-79
2023/03/29 03:39:34;;;;;;;;;;;;;;;3.44;50.91;92980.47;4955744;29;19922;-78
2023/03/29 03:42:02;;;;;;;;;;;;;;;3.38;51.05;92973.63;4938867;29;19994;-78
2023/03/29 03:44:28;;;;;;;;;;;;;;;3.30;50.83;92966.22;4954807;29;19918;-79
2023/03/29 03:47:13;;;;;;;;;;;;;;;3.23;50.56;92955.22;4955916;29;19926;-79
2023/03/29 03:49:40;;;;;;;;;;;;;;;3.17;50.04;92961.28;4969608;28;19914;-79
2023/03/29 03:52:06;;;;;;;;;;;;;;;3.14;49.93;92957.38;4974086;28;19973;-79
2023/03/29 03:54:32;;;;;;;;;;;;;;;3.08;50.39;92960.84;4973105;28;20013;-78
2023/03/29 03:57:24;;;;;;;;;;;;;;;3.05;49.14;92962.09;4970881;28;20456;-79
2023/03/29 03:59:51;;;;;;;;;;;;;;;3.02;48.81;92965.16;4961991;28;19926;-79
2023/03/29 04:02:24;;;;;;;;;;;;;;;3.01;48.25;92973.13;4969884;28;19921;-78
2023/03/29 04:04:50;;;;;;;;;;;;;;;3.00;48.36;92966.41;4968737;28;20304;-78
2023/03/29 04:07:17;;;;;;;;;;;;;;;3.00;48.81;92967.19;4957176;28;19917;-78
2023/03/29 04:10:01;;;;;;;;;;;;;;;2.99;50.78;92957.84;4974263;28;19945;-78
2023/03/29 04:12:44;;;;;;;;;;;;;;;2.97;51.11;92959.84;4973462;28;19922;-78
2023/03/29 04:15:10;;;;;;;;;;;;;;;2.94;52.06;92949.97;4972768;28;19918;-78
2023/03/29 04:17:40;;;;;;;;;;;;;;;2.96;52.21;92966.06;4970668;28;19914;-79
2023/03/29 04:20:17;;;;;;;;;;;;;;;2.96;51.02;92966.06;4956034;29;20013;-78
2023/03/29 04:22:43;;;;;;;;;;;;;;;2.95;50.36;92959.31;4963197;28;19918;-78
2023/03/29 04:25:10;;;;;;;;;;;;;;;2.95;51.32;92964.50;4975202;28;20554;-78
2023/03/29 04:27:48;;;;;;;;;;;;;;;2.94;51.42;92955.16;4974804;28;20277;-80
2023/03/29 04:30:40;;;;;;;;;;;;;;;2.95;53.65;92963.69;4983722;28;19945;-79
2023/03/29 04:33:13;;;;;;;;;;;;;;;2.92;53.56;92970.09;4959280;28;19914;-79
2023/03/29 04:35:51;;;;;;;;;;;;;;;2.89;53.60;92960.22;4954196;29;20013;-78
2023/03/29 04:38:21;;;;;;;;;;;;;;;2.86;53.81;92950.31;4953436;29;19977;-78
2023/03/29 04:40:48;;;;;;;;;;;;;;;2.86;53.79;92951.13;4983971;28;19918;-79
2023/03/29 04:43:23;;;;;;;;;;;;;;;2.88;54.24;92962.03;4966710;28;20005;-78
2023/03/29 04:46:06;;;;;;;;;;;;;;;2.88;54.73;92971.56;4973106;28;19917;-78
2023/03/29 04:48:50;;;;;;;;;;;;;;;2.90;54.89;92965.19;4964479;28;20042;-79
2023/03/29 04:51:21;;;;;;;;;;;;;;;2.91;55.40;92984.06;4971486;28;19977;-78
2023/03/29 04:53:50;;;;;;;;;;;;;;;2.91;54.08;92968.56;4984888;28;20012;-79
2023/03/29 04:56:16;;;;;;;;;;;;;;;2.94;54.71;92967.31;4972827;28;19969;-79
2023/03/29 04:59:04;;;;;;;;;;;;;;;2.98;54.58;92964.03;4975396;28;19918;-79
2023/03/29 05:01:30;;;;;;;;;;;;;;;3.01;54.82;92971.34;4966733;28;20311;-78
2023/03/29 05:03:56;;;;;;;;;;;;;;;3.03;55.44;92971.88;4974677;28;19922;-79
2023/03/29 05:06:28;;;;;;;;;;;;;;;3.05;55.30;92963.91;4969379;28;20394;-78
2023/03/29 05:08:54;;;;;;;;;;;;;;;3.06;55.39;92963.69;4978208;28;19925;-79
2023/03/29 05:11:45;;;;;;;;;;;;;;;3.07;54.87;92961.88;4971406;28;19954;-80
2023/03/29 05:14:12;;;;;;;;;;;;;;;3.09;54.83;92971.00;4955978;29;19919;-80
2023/03/29 05:16:37;;;;;;;;;;;;;;;3.10;55.70;92967.38;4972509;28;20379;-81
2023/03/29 05:19:04;;;;;;;;;;;;;;;3.12;55.76;92957.59;4979065;28;19925;-79
2023/03/29 05:21:32;;;;;;;;;;;;;;;3.12;56.39;92964.56;4971005;28;19914;-79
2023/03/29 05:24:01;;;;;;;;;;;;;;;3.12;57.17;92965.34;4980385;28;19925;-78
2023/03/29 05:26:52;;;;;;;;;;;;;;;3.19;57.42;92964.44;4980937;28;19921;-80
2023/03/29 05:29:18;;;;;;;;;;;;;;;3.19;55.82;92961.84;4973916;28;19973;-79
2023/03/29 05:31:49;;;;;;;;;;;;;;;3.22;57.23;92956.22;4969154;28;19926;-79
2023/03/29 05:34:15;;;;;;;;;;;;;;;3.31;56.11;92967.78;4972800;28;19925;-77
2023/03/29 05:36:45;;;;;;;;;;;;;;;3.38;56.29;92978.00;4958802;29;19920;-78
2023/03/29 05:39:11;;;;;;;;;;;;;;;3.44;54.93;92983.03;4967246;28;19953;-78
2023/03/29 05:41:39;;;;;;;;;;;;;;;3.47;54.59;92969.66;4971920;28;20008;-79
2023/03/29 05:44:20;;;;;;;;;;;;;;;3.51;55.19;92965.59;4974193;28;19918;-78
2023/03/29 05:46:51;;;;;;;;;;;;;;;3.62;55.24;92968.38;4972597;28;19929;-79
2023/03/29 05:49:17;;;;;;;;;;;;;;;3.70;54.69;92973.19;4972516;28;20293;-78
2023/03/29 05:52:05;;;;;;;;;;;;;;;3.77;55.27;92965.28;4976706;28;20012;-78
2023/03/29 05:54:32;;;;;;;;;;;;;;;3.85;54.01;92964.88;4975262;28;19914;-79
2023/03/29 05:56:58;;;;;;;;;;;;;;;3.97;54.55;92981.94;4976335;28;19918;-79
2023/03/29 05:59:27;;;;;;;;;;;;;;;4.22;53.99;92978.22;4975298;28;19947;-79
2023/03/29 06:01:52;;;;;;;;;;;;;;;4.58;53.08;92979.53;4959186;28;19925;-78
2023/03/29 06:04:19;;;;;;;;;;;;;;;5.03;52.91;92985.63;4975867;28;19918;-78
2023/03/29 06:07:00;;;;;;;;;;;;;;;5.56;51.46;92975.63;4974973;28;20023;-79
2023/03/29 06:09:26;;;;;;;;;;;;;;;5.93;48.38;92980.97;4972497;28;20140;-80
2023/03/29 06:12:03;;;;;;;;;;;;;;;6.22;46.78;92970.34;4965623;28;19922;-80
2023/03/29 06:14:28;;;;;;;;;;;;;;;6.27;45.69;92983.38;4976813;28;19925;-78
2023/03/29 06:17:05;;;;;;;;;;;;;;;6.24;47.63;92987.25;4976513;28;19918;-79
2023/03/29 06:19:30;;;;;;;;;;;;;;;6.19;47.28;92991.63;4977885;28;19925;-80
2023/03/29 06:21:56;;;;;;;;;;;;;;;6.08;47.50;92995.16;4975903;28;19925;-79
2023/03/29 06:24:24;;;;;;;;;;;;;;;6.01;48.14;92987.53;4977014;28;19914;-78
2023/03/29 06:26:57;;;;;;;;;;;;;;;5.94;48.14;92986.94;4978168;28;20376;-79
2023/03/29 06:29:23;;;;;;;;;;;;;;;5.89;49.30;92994.69;4974094;28;19918;-79
2023/03/29 06:31:49;;;;;;;;;;;;;;;5.86;47.89;92990.75;4978593;28;19922;-79
2023/03/29 06:34:53;;;;;;;;;;;;;;;5.92;48.35;92986.38;4970921;28;20005;-78
2023/03/29 06:37:26;;;;;;;;;;;;;;;5.95;48.73;92986.72;4953052;29;19914;-78
2023/03/29 06:40:01;;;;;;;;;;;;;;;6.14;47.72;92984.56;4962921;28;19972;-79
2023/03/29 06:42:34;;;;;;;;;;;;;;;6.31;47.74;92997.47;4973650;28;19925;-78
2023/03/29 06:45:20;;;;;;;;;;;;;;;6.41;49.04;93007.16;4976152;28;19925;-79
2023/03/29 06:47:48;;;;;;;;;;;;;;;6.51;48.65;93012.47;4977436;28;19921;-80
2023/03/29 06:50:13;;;;;;;;;;;;;;;6.60;48.43;93000.56;4975364;28;19918;-80
2023/03/29 06:52:45;;;;;;;;;;;;;;;6.80;46.08;92994.72;4974960;28;19918;-80
2023/03/29 06:55:11;;;;;;;;;;;;;;;6.94;47.78;92997.69;4972863;28;19914;-79
2023/03/29 06:57:37;;;;;;;;;;;;;;;7.01;45.94;92994.84;4973686;28;19914;-79
2023/03/29 07:00:15;;;;;;;;;;;;;;;7.11;45.04;93004.53;4975787;28;20025;-79
2023/03/29 07:03:05;;;;;;;;;;;;;;;7.61;45.25;93013.63;4976838;28;19920;-80
2023/03/29 07:05:31;;;;;;;;;;;;;;;8.83;44.85;93002.69;4976706;28;20009;-80
2023/03/29 07:08:09;;;;;;;;;;;;;;;10.09;42.19;93008.88;4977722;28;20015;-81
2023/03/29 07:10:46;;;;;;;;;;;;;;;11.18;38.84;93015.69;4961529;28;19918;-78
2023/03/29 07:13:31;;;;;;;;;;;;;;;12.15;35.04;93025.16;4986199;28;19937;-79
2023/03/29 07:16:00;;;;;;;;;;;;;;;12.89;33.33;93029.91;4974305;28;19918;-80
2023/03/29 07:18:45;;;;;;;;;;;;;;;12.82;34.09;93035.53;4976818;28;20380;-78
2023/03/29 07:21:19;;;;;;;;;;;;;;;11.90;35.36;93025.47;4961293;28;19957;-78
2023/03/29 07:23:45;;;;;;;;;;;;;;;11.10;37.20;93016.28;4977415;28;19918;-79
2023/03/29 07:26:12;;;;;;;;;;;;;;;10.67;38.47;93024.75;4974616;28;19974;-79
2023/03/29 07:28:41;;;;;;;;;;;;;;;10.26;39.21;93035.44;4975506;28;20355;-80
2023/03/29 07:31:09;;;;;;;;;;;;;;;10.10;40.01;93039.97;4974344;28;20222;-79
2023/03/29 07:33:41;;;;;;;;;;;;;;;10.08;39.50;93026.38;4970946;28;19914;-81
2023/03/29 07:36:07;;;;;;;;;;;;;;;10.07;38.69;93027.44;4974759;28;19918;-82
2023/03/29 07:38:35;;;;;;;;;;;;;;;10.29;39.91;93026.31;4974813;28;19925;-80
2023/03/29 07:41:06;;;;;;;;;;;;;;;10.03;40.85;93025.63;4975445;28;19918;-78
2023/03/29 07:43:41;;;;;;;;;;;;;;;9.75;41.82;93033.84;4976160;28;19918;-80
2023/03/29 07:46:08;;;;;;;;;;;;;;;9.66;42.38;93027.63;4973845;28;19914;-80
2023/03/29 07:48:35;;;;;;;;;;;;;;;9.64;41.68;93037.56;4991422;28;19941;-79
2023/03/29 07:51:06;;;;;;;;;;;;;;;9.46;40.93;93044.13;4975065;28;20393;-79
2023/03/29 07:53:46;;;;;;;;;;;;;;;9.52;40.51;93052.72;4971373;28;19953;-80
2023/03/29 07:56:41;;;;;;;;;;;;;;;9.78;39.11;93048.22;4962946;28;19925;-80
2023/03/29 07:59:20;;;;;;;;;;;;;;;9.81;39.43;93052.91;4973746;28;20013;-80
2023/03/29 08:01:54;;;;;;;;;;;;;;;9.89;39.29;93046.38;4969624;28;20328;-79
2023/03/29 08:04:40;;;;;;;;;;;;;;;9.83;39.40;93053.44;4975767;28;19918;-79
2023/03/29 08:07:18;;;;;;;;;;;;;;;9.82;40.99;93046.66;4978378;28;19925;-79
2023/03/29 08:09:59;;;;;;;;;;;;;;;9.64;39.00;93045.41;4975948;28;20506;-79
2023/03/29 08:12:47;;;;;;;;;;;;;;;9.72;38.07;93050.06;4975386;28;19929;-80
2023/03/29 08:15:14;;;;;;;;;;;;;;;9.70;38.33;93046.94;4975171;28;19914;-79
2023/03/29 08:17:40;;;;;;;;;;;;;;;9.96;37.48;93060.69;4972449;28;19925;-82
2023/03/29 08:20:08;;;;;;;;;;;;;;;10.09;38.41;93051.50;4986205;28;19917;-78
2023/03/29 08:22:36;;;;;;;;;;;;;;;10.17;38.17;93069.25;4988271;28;19965;-78
2023/03/29 08:25:22;;;;;;;;;;;;;;;10.70;38.26;93068.72;4960803;28;20288;-79
2023/03/29 08:27:51;;;;;;;;;;;;;;;10.63;37.92;93063.81;4975492;28;19980;-78
2023/03/29 08:30:27;;;;;;;;;;;;;;;10.21;37.73;93067.66;4976313;28;19922;-78
2023/03/29 08:32:53;;;;;;;;;;;;;;;10.04;37.23;93071.66;4976186;28;19924;-78
2023/03/29 08:35:18;;;;;;;;;;;;;;;10.02;35.87;93066.72;4977082;28;20388;-78
2023/03/29 08:37:54;;;;;;;;;;;;;;;10.17;35.71;93071.06;4976967;28;19972;-79
2023/03/29 08:40:28;;;;;;;;;;;;;;;10.11;36.08;93064.28;4975238;28;20086;-79
2023/03/29 08:43:07;;;;;;;;;;;;;;;10.49;37.05;93075.13;4975929;28;19914;-79
2023/03/29 08:46:10;;;;;;;;;;;;;;;10.57;35.51;93075.34;4971952;28;19960;-79
2023/03/29 08:48:42;;;;;;;;;;;;;;;10.71;35.52;93072.91;4973595;28;19922;-80
2023/03/29 08:51:21;;;;;;;;;;;;;;;10.65;35.79;93073.22;4972462;28;19918;-79
2023/03/29 08:53:54;;;;;;;;;;;;;;;10.23;36.12;93082.31;4976410;28;20561;-78
2023/03/29 08:56:28;;;;;;;;;;;;;;;9.94;35.88;93069.88;4972707;28;20436;-80
2023/03/29 08:59:16;;;;;;;;;;;;;;;9.96;36.49;93073.00;4974181;28;19968;-79
2023/03/29 09:01:42;;;;;;;;;;;;;;;10.13;33.95;93070.84;4993354;28;19914;-82
2023/03/29 09:04:13;;;;;;;;;;;;;;;10.12;36.00;93069.28;4979042;28;19917;-81
2023/03/29 09:07:01;;;;;;;;;;;;;;;10.45;36.03;93074.91;4976672;28;19918;-80
2023/03/29 09:09:34;;;;;;;;;;;;;;;10.52;36.88;93072.78;4976861;28;19914;-81
2023/03/29 09:12:24;;;;;;;;;;;;;;;10.15;35.83;93079.19;4976469;28;19922;-82
2023/03/29 09:15:20;;;;;;;;;;;;;;;9.96;36.51;93078.22;4970780;28;19921;-81
2023/03/29 09:18:14;;;;;;;;;;;;;;;10.04;38.48;93087.34;4954783;28;20148;-80
2023/03/29 09:20:47;;;;;;;;;;;;;;;10.42;37.25;93085.91;4977116;28;19914;-81
2023/03/29 09:23:19;;;;;;;;;;;;;;;10.54;36.76;93081.13;4970219;28;19915;-80
2023/03/29 09:26:35;;;;;;;;;;;;;;;10.32;36.72;93078.13;4969604;28;20450;-82
2023/03/29 09:29:40;;;;;;;;;;;;;;;10.63;35.31;93070.88;4971239;28;19925;-80
2023/03/29 09:32:13;;;;;;;;;;;;;;;10.69;35.08;93067.16;4973561;28;19925;-81
2023/03/29 09:34:44;;;;;;;;;;;;;;;10.93;34.92;93075.13;4974694;28;19921;-80
2023/03/29 09:37:21;;;;;;;;;;;;;;;11.06;35.48;93063.25;4974145;28;19921;-80
2023/03/29 09:39:48;;;;;;;;;;;;;;;11.56;34.59;93073.53;4974015;28;20332;-81
2023/03/29 09:42:16;;;;;;;;;;;;;;;11.45;34.94;93078.88;4957475;28;20360;-80
2023/03/29 09:44:56;;;;;;;;;;;;;;;11.46;35.31;93067.34;4974115;28;19942;-80
2023/03/29 09:47:34;;;;;;;;;;;;;;;11.55;36.07;93058.84;4974323;28;20000;-78
2023/03/29 09:50:09;;;;;;;;;;;;;;;11.46;35.78;93061.31;4974004;28;19921;-78
2023/03/29 09:52:34;;;;;;;;;;;;;;;11.13;35.33;93066.31;4976824;28;20013;-79
2023/03/29 09:55:13;;;;;;;;;;;;;;;11.35;35.90;93065.88;4978028;28;19913;-80
2023/03/29 09:58:21;;;;;;;;;;;;;;;11.17;34.44;93061.31;4971360;28;19918;-80
2023/03/29 10:00:49;;;;;;;;;;;;;;;11.10;35.91;93059.03;4977451;28;20438;-78
2023/03/29 10:03:24;;;;;;;;;;;;;;;10.98;36.42;93061.97;4976069;28;20284;-78
2023/03/29 10:05:58;;;;;;;;;;;;;;;10.87;35.93;93064.94;4977182;28;20407;-80
2023/03/29 10:08:35;;;;;;;;;;;;;;;10.97;36.63;93063.03;4978166;28;19914;-80
2023/03/29 10:11:06;;;;;;;;;;;;;;;11.50;34.98;93067.56;5003967;28;19918;-80
2023/03/29 10:13:34;;;;;;;;;;;;;;;11.70;35.40;93068.41;4958578;29;19969;-79
2023/03/29 10:16:15;;;;;;;;;;;;;;;11.88;33.77;93052.75;4957566;29;19917;-79
2023/03/29 10:18:41;;;;;;;;;;;;;;;11.70;34.97;93053.47;4957948;29;19915;-78
2023/03/29 10:21:12;;;;;;;;;;;;;;;11.54;33.15;93049.44;4958579;29;19926;-80
2023/03/29 10:23:37;;;;;;;;;;;;;;;11.69;32.93;93048.50;4959486;29;19919;-79
2023/03/29 10:26:04;;;;;;;;;;;;;;;11.76;35.11;93047.09;4959099;29;19983;-80
2023/03/29 10:28:31;;;;;;;;;;;;;;;11.86;32.56;93044.34;4964812;28;19924;-79
2023/03/29 10:30:58;;;;;;;;;;;;;;;12.03;31.90;93043.16;4977932;28;19914;-80
2023/03/29 10:33:26;;;;;;;;;;;;;;;11.95;32.31;93043.78;4977423;28;19976;-80
2023/03/29 10:35:54;;;;;;;;;;;;;;;11.83;32.36;93038.91;4977647;28;20041;-80
2023/03/29 10:38:21;;;;;;;;;;;;;;;12.21;32.49;93042.41;4978922;28;19921;-78
2023/03/29 10:40:51;;;;;;;;;;;;;;;12.27;32.60;93046.53;4976199;28;19913;-80
2023/03/29 10:43:28;;;;;;;;;;;;;;;12.02;32.44;93036.34;4977794;28;19918;-80
2023/03/29 10:45:55;;;;;;;;;;;;;;;12.21;31.76;93024.03;4977556;28;19918;-79
2023/03/29 10:48:27;;;;;;;;;;;;;;;12.04;30.75;93021.88;4977644;28;19921;-80
2023/03/29 10:50:56;;;;;;;;;;;;;;;12.22;31.78;93017.72;4976585;28;19984;-80
2023/03/29 10:53:25;;;;;;;;;;;;;;;12.14;31.94;93026.22;4977695;28;20348;-80
2023/03/29 10:55:53;;;;;;;;;;;;;;;12.12;30.68;93032.84;4978169;28;20020;-79
2023/03/29 10:58:33;;;;;;;;;;;;;;;12.19;30.82;93031.41;4974982;28;20004;-80
2023/03/29 11:00:58;;;;;;;;;;;;;;;12.08;30.64;93033.38;4977840;28;19921;-80
2023/03/29 11:03:47;;;;;;;;;;;;;;;12.16;28.89;93039.06;4975789;28;19937;-80
2023/03/29 11:06:28;;;;;;;;;;;;;;;12.06;30.11;93042.59;4977924;28;19918;-78
2023/03/29 11:08:58;;;;;;;;;;;;;;;12.32;29.93;93044.91;4977150;28;19914;-80
2023/03/29 11:11:35;;;;;;;;;;;;;;;12.82;29.61;93042.63;4976966;28;19918;-79
2023/03/29 11:14:01;;;;;;;;;;;;;;;12.94;29.53;93050.84;4977333;28;19953;-79
2023/03/29 11:16:29;;;;;;;;;;;;;;;13.03;29.06;93037.84;4975884;28;19969;-80
2023/03/29 11:18:55;;;;;;;;;;;;;;;13.63;31.06;93032.63;4977209;28;19957;-79
2023/03/29 11:21:20;;;;;;;;;;;;;;;13.77;29.65;93027.38;4975977;28;19957;-81
2023/03/29 11:23:52;;;;;;;;;;;;;;;13.48;31.53;93035.53;4974415;28;19918;-81
2023/03/29 11:26:27;;;;;;;;;;;;;;;13.66;29.90;93029.41;4975421;28;19924;-80
2023/03/29 11:29:01;;;;;;;;;;;;;;;13.94;30.46;93037.34;4977044;28;19984;-80
2023/03/29 11:31:29;;;;;;;;;;;;;;;14.32;31.63;93031.81;4977183;28;19922;-81
2023/03/29 11:34:13;;;;;;;;;;;;;;;14.58;31.38;93024.97;4977093;28;19917;-81
2023/03/29 11:36:41;;;;;;;;;;;;;;;14.51;29.14;93018.53;4974738;28;19985;-81
2023/03/29 11:39:10;;;;;;;;;;;;;;;14.40;29.93;92999.53;4976077;28;19921;-81
2023/03/29 11:41:41;;;;;;;;;;;;;;;14.25;29.54;93002.47;4975321;28;19990;-80
2023/03/29 11:44:13;;;;;;;;;;;;;;;14.46;30.12;93003.63;4975520;28;19969;-81
2023/03/29 11:46:42;;;;;;;;;;;;;;;14.69;28.81;92999.16;4975722;28;20005;-81
2023/03/29 11:49:22;;;;;;;;;;;;;;;14.32;26.80;92995.75;4976745;28;20284;-80
2023/03/29 11:51:53;;;;;;;;;;;;;;;14.21;29.89;92994.41;5002537;28;19933;-80
2023/03/29 11:54:26;;;;;;;;;;;;;;;13.95;28.89;92992.28;4976535;28;19914;-81
2023/03/29 11:56:58;;;;;;;;;;;;;;;13.79;28.83;92993.66;4976794;28;20349;-80
2023/03/29 11:59:27;;;;;;;;;;;;;;;13.58;30.03;92979.34;4975456;28;19914;-80
2023/03/29 12:02:19;;;;;;;;;;;;;;;13.22;30.80;92972.88;4958027;28;19917;-80
2023/03/29 12:04:48;;;;;;;;;;;;;;;13.57;32.03;92965.41;4974032;28;20339;-80
2023/03/29 12:07:16;;;;;;;;;;;;;;;13.73;31.51;92974.59;4970788;28;19974;-78
2023/03/29 12:09:48;;;;;;;;;;;;;;;13.47;31.25;92960.34;4970516;28;19914;-80
2023/03/29 12:12:25;;;;;;;;;;;;;;;13.61;31.90;92960.34;4975016;28;19925;-81
2023/03/29 12:15:18;;;;;;;;;;;;;;;13.68;31.26;92953.63;4974179;28;19914;-80
2023/03/29 12:18:10;;;;;;;;;;;;;;;13.62;31.14;92952.19;4974219;28;20000;-80
2023/03/29 12:20:38;;;;;;;;;;;;;;;13.38;31.18;92949.72;4966474;28;20451;-81
2023/03/29 12:23:06;;;;;;;;;;;;;;;13.28;31.74;92949.91;4973828;28;19917;-80
2023/03/29 12:25:51;;;;;;;;;;;;;;;13.45;31.33;92936.97;4973294;28;19918;-81
2023/03/29 12:28:31;;;;;;;;;;;;;;;13.50;32.64;92931.59;4973341;28;19921;-79
2023/03/29 12:31:05;;;;;;;;;;;;;;;13.54;32.53;92931.81;4972060;28;19922;-80
2023/03/29 12:33:30;;;;;;;;;;;;;;;13.68;31.13;92929.94;4974229;28;20461;-81
2023/03/29 12:36:21;;;;;;;;;;;;;;;13.95;31.21;92933.59;4971774;28;19952;-81
2023/03/29 12:39:19;;;;;;;;;;;;;;;13.91;31.66;92945.78;4958479;28;19921;-79
2023/03/29 12:42:24;;;;;;;;;;;;;;;13.85;31.08;92936.47;4975311;28;20388;-79
2023/03/29 12:45:37;;;;;;;;;;;;;;;14.02;31.26;92936.59;4973343;28;19981;-80
2023/03/29 12:48:03;;;;;;;;;;;;;;;13.91;31.50;92938.66;4956116;28;19914;-80
2023/03/29 12:50:33;;;;;;;;;;;;;;;13.83;31.68;92939.38;4955391;29;19915;-79
2023/03/29 12:53:21;;;;;;;;;;;;;;;13.94;32.48;92927.56;4938725;29;19992;-80
2023/03/29 12:55:47;;;;;;;;;;;;;;;13.93;31.16;92926.00;4952308;29;20013;-80
2023/03/29 12:58:27;;;;;;;;;;;;;;;13.91;31.67;92928.16;4956112;29;20001;-80
2023/03/29 13:01:21;;;;;;;;;;;;;;;13.84;31.99;92927.78;4956325;28;20361;-78
2023/03/29 13:03:47;;;;;;;;;;;;;;;14.13;31.57;92930.06;4972181;28;19920;-81
2023/03/29 13:06:24;;;;;;;;;;;;;;;14.16;32.10;92916.31;4935978;28;1145006;-80
2023/03/29 13:08:57;;;;;;;;;;;;;;;14.03;30.88;92925.03;4973947;28;20009;-80
2023/03/29 13:11:28;;;;;;;;;;;;;;;14.21;31.58;92925.16;4973757;28;19918;-80
2023/03/29 13:13:54;;;;;;;;;;;;;;;14.33;31.40;92922.78;4974006;28;19921;-81
2023/03/29 13:16:27;;;;;;;;;;;;;;;14.57;31.15;92917.25;4975230;28;19910;-79
2023/03/29 13:18:57;;;;;;;;;;;;;;;14.75;31.40;92918.94;4973481;28;19914;-80
2023/03/29 13:21:41;;;;;;;;;;;;;;;14.70;31.57;92913.78;4975270;28;19918;-79
2023/03/29 13:24:09;;;;;;;;;;;;;;;14.95;30.25;92907.09;4974685;28;19992;-79
2023/03/29 13:26:41;;;;;;;;;;;;;;;15.29;30.34;92916.25;4975423;28;20269;-81
2023/03/29 13:29:13;;;;;;;;;;;;;;;15.27;29.71;92921.06;4977883;28;20343;-81